Time;durP1;ratioP1;P1;durP2;ratioP2;P2;SDS_P1;SDS_P2;PMS_P1;PMS_P2;Temp;Humidity;BMP_temperature;BMP_pressure;BME280_temperature;BME280_humidity;BME280_pressure;Samples;Min_cycle;Max_cycle;Signal;HPM_P1;HPM_P2
2023/11/22 00:01:37;;;;;;;1.83;1.20;;;10.50;99.90;;;;;;4993926;28;20612;-62
2023/11/22 00:04:03;;;;;;;0.50;0.50;;;10.50;99.90;;;;;;4993553;28;20623;-61
2023/11/22 00:06:29;;;;;;;0.90;0.87;;;10.50;99.90;;;;;;4993819;28;20544;-62
2023/11/22 00:08:55;;;;;;;0.50;0.50;;;10.50;99.90;;;;;;4993735;28;20435;-61
2023/11/22 00:11:21;;;;;;;0.77;0.70;;;10.50;99.90;;;;;;4993618;28;20176;-61
2023/11/22 00:13:46;;;;;;;1.53;1.33;;;10.50;99.90;;;;;;4993184;28;20184;-62
2023/11/22 00:16:12;;;;;;;0.40;0.40;;;10.60;99.90;;;;;;4993626;28;20176;-62
2023/11/22 00:18:38;;;;;;;0.50;0.50;;;10.60;99.90;;;;;;4993155;28;20183;-62
2023/11/22 00:21:05;;;;;;;0.52;0.52;;;10.40;99.90;;;;;;4993565;28;20255;-62
2023/11/22 00:23:32;;;;;;;0.67;0.67;;;10.20;98.40;;;;;;4993291;28;20250;-62
2023/11/22 00:25:58;;;;;;;2.25;0.52;;;10.00;97.70;;;;;;4976031;28;20176;-62
2023/11/22 00:28:24;;;;;;;1.23;1.13;;;9.90;97.80;;;;;;4993393;28;20171;-62
2023/11/22 00:30:50;;;;;;;0.63;0.63;;;9.90;98.50;;;;;;4993356;28;20196;-62
2023/11/22 00:33:18;;;;;;;0.70;0.50;;;9.90;98.40;;;;;;4993206;28;20450;-62
2023/11/22 00:35:43;;;;;;;0.85;0.65;;;10.00;97.90;;;;;;4976341;28;20180;-61
2023/11/22 00:38:09;;;;;;;6.63;1.20;;;10.00;98.50;;;;;;4975835;28;20657;-62
2023/11/22 00:40:36;;;;;;;2.43;1.30;;;10.00;98.50;;;;;;4993353;28;20627;-62
2023/11/22 00:43:02;;;;;;;0.50;0.40;;;10.00;98.70;;;;;;4992836;28;20188;-62
2023/11/22 00:45:28;;;;;;;0.30;0.30;;;10.20;98.90;;;;;;4993107;28;20187;-62
2023/11/22 00:47:53;;;;;;;0.40;0.40;;;10.20;99.20;;;;;;4993020;28;20642;-62
2023/11/22 00:50:20;;;;;;;0.40;0.40;;;10.10;99.40;;;;;;4975729;28;20203;-62
2023/11/22 00:52:47;;;;;;;0.80;0.50;;;10.00;99.40;;;;;;4992672;28;20689;-62
2023/11/22 00:55:13;;;;;;;0.50;0.50;;;10.00;99.30;;;;;;4992823;28;20180;-62
2023/11/22 00:57:40;;;;;;;0.30;0.30;;;10.10;99.10;;;;;;4975633;28;20578;-62
2023/11/22 01:00:09;;;;;;;0.73;0.73;;;10.20;99.20;;;;;;4993275;28;20868;-62
2023/11/22 01:02:39;;;;;;;0.60;0.60;;;10.10;99.40;;;;;;4992043;28;20211;-62
2023/11/22 01:05:12;;;;;;;0.50;0.50;;;10.20;99.40;;;;;;4993085;28;20561;-61
2023/11/22 01:07:38;;;;;;;0.50;0.50;;;9.90;99.90;;;;;;4992702;28;20208;-62
2023/11/22 01:10:05;;;;;;;0.40;0.40;;;10.00;99.30;;;;;;4992648;28;20195;-62
2023/11/22 01:12:31;;;;;;;0.70;0.70;;;10.10;99.10;;;;;;4992224;28;20219;-62
2023/11/22 01:14:56;;;;;;;0.50;0.50;;;10.00;99.20;;;;;;4992585;28;20699;-62
2023/11/22 01:17:23;;;;;;;0.73;0.73;;;9.90;99.90;;;;;;4992132;28;20426;-61
2023/11/22 01:19:50;;;;;;;0.95;0.40;;;9.90;99.50;;;;;;4975443;28;20294;-62
2023/11/22 01:22:17;;;;;;;0.30;0.30;;;9.80;99.30;;;;;;4992206;28;20212;-62
2023/11/22 01:24:43;;;;;;;0.40;0.40;;;9.60;99.60;;;;;;4992411;28;20172;-62
2023/11/22 01:27:08;;;;;;;0.60;0.40;;;9.60;99.80;;;;;;4992880;28;20181;-61
2023/11/22 01:29:34;;;;;;;1.00;0.90;;;9.30;99.90;;;;;;4992262;28;20858;-62
2023/11/22 01:32:00;;;;;;;0.60;0.60;;;9.20;99.90;;;;;;4992355;28;20203;-62
2023/11/22 01:34:26;;;;;;;0.40;0.40;;;9.30;99.90;;;;;;4992236;28;20724;-62
2023/11/22 01:36:52;;;;;;;0.87;0.87;;;9.40;99.90;;;;;;4992366;28;20411;-62
2023/11/22 01:39:19;;;;;;;0.70;0.60;;;9.50;99.90;;;;;;4992059;28;20219;-62
2023/11/22 01:41:45;;;;;;;0.30;0.30;;;9.60;99.90;;;;;;4992543;28;20431;-62
2023/11/22 01:44:10;;;;;;;0.50;0.50;;;9.60;99.90;;;;;;4991758;28;20226;-61
2023/11/22 01:46:38;;;;;;;0.80;0.70;;;9.70;99.90;;;;;;4992160;28;20168;-60
2023/11/22 01:49:03;;;;;;;0.55;0.50;;;10.00;99.10;;;;;;4992209;28;20180;-62
2023/11/22 01:51:31;;;;;;;1.03;1.00;;;10.00;98.70;;;;;;4992032;28;20688;-62
2023/11/22 01:53:58;;;;;;;0.40;0.40;;;10.10;98.80;;;;;;4991821;28;20238;-61
2023/11/22 01:56:27;;;;;;;0.30;0.30;;;10.10;98.50;;;;;;4992090;28;20572;-61
2023/11/22 01:58:54;;;;;;;0.40;0.30;;;10.10;98.30;;;;;;4991996;28;20680;-62
2023/11/22 02:01:20;;;;;;;0.52;0.52;;;10.00;98.60;;;;;;4992058;28;20222;-62
2023/11/22 02:03:47;;;;;;;0.50;0.40;;;10.10;98.50;;;;;;4970791;28;20207;-61
2023/11/22 02:06:16;;;;;;;0.65;0.63;;;10.10;97.90;;;;;;4987722;28;20507;-61
2023/11/22 02:08:42;;;;;;;0.68;0.68;;;10.00;98.40;;;;;;4992057;28;20258;-61
2023/11/22 02:11:09;;;;;;;0.82;0.82;;;10.00;98.40;;;;;;4991767;28;20182;-62
2023/11/22 02:13:35;;;;;;;0.98;0.45;;;9.90;99.20;;;;;;4992883;28;20187;-61
2023/11/22 02:16:03;;;;;;;0.30;0.30;;;9.90;99.10;;;;;;4995816;28;20179;-61
2023/11/22 02:18:29;;;;;;;2.55;1.05;;;9.90;98.90;;;;;;4995818;28;20264;-61
2023/11/22 02:20:55;;;;;;;1.13;1.10;;;9.90;99.50;;;;;;4995721;28;20294;-62
2023/11/22 02:23:21;;;;;;;0.30;0.30;;;10.00;98.90;;;;;;4978101;28;20943;-61
2023/11/22 02:25:49;;;;;;;0.70;0.70;;;9.90;99.40;;;;;;4995601;28;20186;-62
2023/11/22 02:28:15;;;;;;;0.40;0.40;;;9.90;99.10;;;;;;4995641;28;20176;-61
2023/11/22 02:30:41;;;;;;;0.40;0.40;;;9.80;99.70;;;;;;4995700;28;20255;-62
2023/11/22 02:33:07;;;;;;;0.38;0.38;;;9.90;99.90;;;;;;4995277;28;20196;-61
2023/11/22 02:35:34;;;;;;;0.53;0.40;;;9.90;99.60;;;;;;4995509;28;20205;-62
2023/11/22 02:38:00;;;;;;;0.77;0.60;;;9.90;99.90;;;;;;4995601;28;20176;-61
2023/11/22 02:40:28;;;;;;;0.90;0.60;;;9.90;99.90;;;;;;4995411;28;20291;-62
2023/11/22 02:42:55;;;;;;;0.77;0.45;;;10.00;98.80;;;;;;4995429;28;20204;-62
2023/11/22 02:45:28;;;;;;;0.50;0.50;;;10.00;99.00;;;;;;4995467;28;20180;-61
2023/11/22 02:47:54;;;;;;;0.30;0.30;;;10.00;98.50;;;;;;4995361;28;20176;-62
2023/11/22 02:50:20;;;;;;;0.40;0.40;;;10.00;98.70;;;;;;4995282;28;20556;-61
2023/11/22 02:52:46;;;;;;;0.30;0.30;;;10.10;98.70;;;;;;4994853;28;20195;-62
2023/11/22 02:55:12;;;;;;;0.60;0.57;;;10.00;98.60;;;;;;4995162;28;20415;-61
2023/11/22 02:57:42;;;;;;;0.60;0.60;;;10.00;98.10;;;;;;4995129;28;20203;-62
2023/11/22 03:00:09;;;;;;;4.35;0.50;;;10.00;99.00;;;;;;4995107;28;20226;-61
2023/11/22 03:02:35;;;;;;;1.45;1.35;;;9.90;99.90;;;;;;4994734;28;20600;-62
2023/11/22 03:05:01;;;;;;;0.55;0.55;;;9.80;99.90;;;;;;4995009;28;20175;-62
2023/11/22 03:07:27;;;;;;;0.30;0.30;;;9.80;99.90;;;;;;4994867;28;20541;-61
2023/11/22 03:09:53;;;;;;;0.50;0.50;;;9.90;99.90;;;;;;4994926;28;20182;-62
2023/11/22 03:12:20;;;;;;;0.70;0.70;;;9.90;99.90;;;;;;4994476;28;20210;-61
2023/11/22 03:14:46;;;;;;;1.00;0.70;;;9.80;99.90;;;;;;4994634;28;20188;-62
2023/11/22 03:17:13;;;;;;;1.00;1.00;;;9.80;99.90;;;;;;4994782;28;20168;-61
2023/11/22 03:19:39;;;;;;;0.50;0.50;;;9.80;99.90;;;;;;4994617;28;20204;-62
2023/11/22 03:22:06;;;;;;;0.52;0.52;;;9.90;99.90;;;;;;4992972;28;20620;-62
2023/11/22 03:24:34;;;;;;;0.40;0.40;;;10.10;99.70;;;;;;4976377;28;20187;-61
2023/11/22 03:27:01;;;;;;;0.40;0.40;;;10.00;99.70;;;;;;4994535;28;20179;-62
2023/11/22 03:29:27;;;;;;;0.60;0.60;;;9.90;99.90;;;;;;4994500;28;20181;-61
2023/11/22 03:31:53;;;;;;;0.60;0.60;;;10.00;99.90;;;;;;4994337;28;20215;-62
2023/11/22 03:34:19;;;;;;;0.40;0.40;;;10.10;99.90;;;;;;4994212;28;20176;-62
2023/11/22 03:36:45;;;;;;;0.50;0.50;;;10.00;99.90;;;;;;4994356;28;20219;-61
2023/11/22 03:39:10;;;;;;;0.67;0.67;;;10.00;99.90;;;;;;4994342;28;20618;-62
2023/11/22 03:41:37;;;;;;;0.97;0.70;;;10.10;99.90;;;;;;4994235;28;20216;-62
2023/11/22 03:44:04;;;;;;;0.68;0.68;;;10.10;99.90;;;;;;4976561;28;20176;-62
2023/11/22 03:46:30;;;;;;;0.98;0.60;;;10.00;99.90;;;;;;4994188;28;20181;-62
2023/11/22 03:48:56;;;;;;;0.30;0.30;;;10.00;99.90;;;;;;4994165;28;20172;-62
2023/11/22 03:51:21;;;;;;;1.27;0.70;;;10.10;99.90;;;;;;4994092;28;20207;-62
2023/11/22 03:53:47;;;;;;;0.93;0.90;;;10.10;99.90;;;;;;4993893;28;20255;-62
2023/11/22 03:56:14;;;;;;;0.70;0.70;;;10.00;99.90;;;;;;4993984;28;20227;-62
2023/11/22 03:58:40;;;;;;;0.50;0.50;;;10.20;99.60;;;;;;4994185;28;20164;-61
2023/11/22 04:01:06;;;;;;;0.60;0.60;;;10.20;99.40;;;;;;4993947;28;20629;-62
2023/11/22 04:03:32;;;;;;;0.57;0.57;;;10.20;99.40;;;;;;4993679;28;20431;-62
2023/11/22 04:05:57;;;;;;;0.50;0.47;;;10.20;99.40;;;;;;4993928;28;20172;-62
2023/11/22 04:08:24;;;;;;;0.73;0.73;;;10.10;99.90;;;;;;4993898;28;20541;-62
2023/11/22 04:10:50;;;;;;;0.43;0.43;;;10.10;99.90;;;;;;4993737;28;20169;-61
2023/11/22 04:13:16;;;;;;;0.73;0.73;;;10.10;99.90;;;;;;5016859;22;20236;-61
2023/11/22 04:15:41;;;;;;;0.43;0.43;;;10.00;99.90;;;;;;4955807;28;20245;-61
2023/11/22 04:18:07;;;;;;;0.90;0.83;;;10.00;99.90;;;;;;4955221;29;20719;-61
2023/11/22 04:20:32;;;;;;;0.70;0.40;;;10.00;99.80;;;;;;4938024;29;20216;-61
2023/11/22 04:22:58;;;;;;;0.40;0.40;;;9.90;99.90;;;;;;4955037;29;20593;-61
2023/11/22 04:25:24;;;;;;;1.10;0.83;;;9.80;99.90;;;;;;4955222;29;20221;-61
2023/11/22 04:27:50;;;;;;;0.60;0.60;;;9.70;99.90;;;;;;4955521;29;20813;-61
2023/11/22 04:30:17;;;;;;;0.40;0.40;;;9.70;99.90;;;;;;4955360;29;20180;-61
2023/11/22 04:32:44;;;;;;;0.50;0.50;;;9.70;99.90;;;;;;4954743;29;20196;-61
2023/11/22 04:35:10;;;;;;;0.50;0.50;;;9.90;99.90;;;;;;4954747;28;20272;-61
2023/11/22 04:37:36;;;;;;;1.07;0.90;;;9.80;99.90;;;;;;4937193;29;20185;-61
2023/11/22 04:40:07;;;;;;;0.70;0.70;;;9.90;99.90;;;;;;4955316;29;20617;-61
2023/11/22 04:42:35;;;;;;;0.95;0.95;;;9.90;99.90;;;;;;4922832;29;20229;-61
2023/11/22 04:45:02;;;;;;;0.52;0.52;;;9.90;99.90;;;;;;4938748;29;20240;-61
2023/11/22 04:47:27;;;;;;;1.20;0.93;;;10.00;99.60;;;;;;4955324;28;20783;-61
2023/11/22 04:49:53;;;;;;;0.50;0.50;;;10.10;99.70;;;;;;4955405;29;20222;-61
2023/11/22 04:52:18;;;;;;;0.40;0.40;;;10.00;99.80;;;;;;4954791;29;20197;-61
2023/11/22 04:54:44;;;;;;;0.43;0.43;;;10.00;99.90;;;;;;4954912;28;20256;-61
2023/11/22 04:57:10;;;;;;;0.60;0.60;;;10.00;99.90;;;;;;4955231;29;20189;-61
2023/11/22 04:59:36;;;;;;;0.50;0.50;;;9.90;99.90;;;;;;4954584;29;20205;-61
2023/11/22 05:02:01;;;;;;;1.27;1.17;;;9.50;99.90;;;;;;4954198;28;20193;-61
2023/11/22 05:04:27;;;;;;;0.97;0.97;;;9.40;99.90;;;;;;4954516;29;20405;-61
2023/11/22 05:06:54;;;;;;;0.80;0.80;;;9.30;99.90;;;;;;4954688;29;20190;-61
2023/11/22 05:09:19;;;;;;;0.60;0.60;;;9.30;99.90;;;;;;4937177;29;20204;-61
2023/11/22 05:11:45;;;;;;;0.60;0.60;;;9.30;99.90;;;;;;4936987;28;20731;-61
2023/11/22 05:14:13;;;;;;;0.40;0.40;;;9.20;99.90;;;;;;4953363;29;20429;-61
2023/11/22 05:16:38;;;;;;;0.60;0.60;;;9.60;99.90;;;;;;4954454;29;20524;-61
2023/11/22 05:19:05;;;;;;;0.60;0.60;;;9.60;99.90;;;;;;4954505;29;20248;-61
2023/11/22 05:21:32;;;;;;;0.90;0.90;;;9.70;99.90;;;;;;4937426;29;20173;-61
2023/11/22 05:23:58;;;;;;;0.50;0.50;;;9.80;99.90;;;;;;4954380;29;20173;-61
2023/11/22 05:26:24;;;;;;;1.60;0.80;;;9.80;99.90;;;;;;4954185;29;20257;-61
2023/11/22 05:28:49;;;;;;;3.85;1.17;;;10.30;99.90;;;;;;4937281;29;20988;-61
2023/11/22 05:31:16;;;;;;;0.73;0.60;;;10.20;99.80;;;;;;4954495;29;20182;-61
2023/11/22 05:33:42;;;;;;;27.88;1.45;;;10.10;99.90;;;;;;4954065;29;20229;-61
2023/11/22 05:36:08;;;;;;;0.63;0.63;;;10.10;99.90;;;;;;4954040;29;20174;-61
2023/11/22 05:38:34;;;;;;;0.40;0.40;;;10.00;99.90;;;;;;4954298;29;20270;-61
2023/11/22 05:41:00;;;;;;;0.50;0.50;;;10.10;99.90;;;;;;4954385;29;20702;-61
2023/11/22 05:43:26;;;;;;;0.50;0.50;;;10.10;99.90;;;;;;4953694;28;20186;-61
2023/11/22 05:45:56;;;;;;;1.00;0.90;;;10.00;99.90;;;;;;4954173;29;20599;-61
2023/11/22 05:48:22;;;;;;;0.80;0.80;;;9.90;99.90;;;;;;4936839;29;20186;-61
2023/11/22 05:50:48;;;;;;;1.77;0.80;;;9.60;99.90;;;;;;4953963;29;20513;-61
2023/11/22 05:53:19;;;;;;;0.63;0.63;;;9.70;99.90;;;;;;4953792;29;20521;-61
2023/11/22 05:55:47;;;;;;;0.60;0.60;;;9.90;99.90;;;;;;4954045;29;20181;-61
2023/11/22 05:58:16;;;;;;;0.57;0.57;;;9.90;99.90;;;;;;4953791;29;20561;-61
2023/11/22 06:00:45;;;;;;;0.90;0.90;;;9.80;99.90;;;;;;4937154;29;20209;-61
2023/11/22 06:03:13;;;;;;;0.50;0.50;;;9.80;99.90;;;;;;4954142;29;20667;-61
2023/11/22 06:05:40;;;;;;;0.60;0.40;;;9.80;99.90;;;;;;4954159;29;20550;-61
2023/11/22 06:08:06;;;;;;;0.90;0.73;;;9.90;99.90;;;;;;4953877;29;20204;-61
2023/11/22 06:10:32;;;;;;;0.90;0.70;;;9.90;99.90;;;;;;4954169;29;20702;-61
2023/11/22 06:12:58;;;;;;;0.50;0.50;;;9.90;99.90;;;;;;4953269;29;20874;-61
2023/11/22 06:15:23;;;;;;;0.40;0.40;;;9.90;99.90;;;;;;4954061;29;20413;-61
2023/11/22 06:17:49;;;;;;;0.57;0.53;;;9.80;99.90;;;;;;4953661;29;20566;-61
2023/11/22 06:20:15;;;;;;;0.70;0.70;;;10.00;99.90;;;;;;4936687;29;20209;-61
2023/11/22 06:22:42;;;;;;;1.17;1.17;;;10.10;99.90;;;;;;4953639;29;20810;-61
2023/11/22 06:25:12;;;;;;;1.20;1.10;;;10.10;99.90;;;;;;4953348;29;20244;-61
2023/11/22 06:27:38;;;;;;;0.80;0.65;;;10.20;99.90;;;;;;4953897;29;20216;-61
2023/11/22 06:30:06;;;;;;;0.93;0.90;;;10.30;99.90;;;;;;4953801;28;20185;-61
2023/11/22 06:32:32;;;;;;;1.77;1.15;;;10.30;99.80;;;;;;4953512;29;20201;-61
2023/11/22 06:34:57;;;;;;;0.50;0.50;;;10.20;95.00;;;;;;4953717;29;20182;-63
2023/11/22 06:37:23;;;;;;;0.40;0.40;;;9.50;96.20;;;;;;4952587;29;20324;-64
2023/11/22 06:39:50;;;;;;;2.50;1.23;;;8.90;97.00;;;;;;4931076;29;20206;-64
2023/11/22 06:42:17;;;;;;;2.58;2.38;;;8.50;97.80;;;;;;4952510;29;20604;-64
2023/11/22 06:44:43;;;;;;;0.50;0.50;;;8.20;98.50;;;;;;4952958;29;20204;-63
2023/11/22 06:47:08;;;;;;;1.10;1.10;;;8.00;99.10;;;;;;4952974;29;20890;-63
2023/11/22 06:49:34;;;;;;;1.37;1.27;;;7.90;99.60;;;;;;4952898;28;20408;-63
2023/11/22 06:52:00;;;;;;;0.47;0.47;;;7.70;99.90;;;;;;4952705;29;20555;-63
2023/11/22 06:54:26;;;;;;;0.52;0.52;;;7.70;99.90;;;;;;4952449;28;20197;-63
2023/11/22 06:56:52;;;;;;;0.50;0.50;;;7.70;99.90;;;;;;4952692;29;20186;-63
2023/11/22 06:59:18;;;;;;;0.82;0.60;;;7.40;99.80;;;;;;4953410;28;20204;-63
2023/11/22 07:01:45;;;;;;;0.70;0.60;;;7.30;99.60;;;;;;4956237;29;20504;-63
2023/11/22 07:04:11;;;;;;;0.45;0.45;;;7.20;99.90;;;;;;4955460;28;20169;-63
2023/11/22 07:06:37;;;;;;;0.43;0.40;;;7.00;99.00;;;;;;4956297;28;20204;-63
2023/11/22 07:09:04;;;;;;;0.50;0.50;;;7.00;99.50;;;;;;4956048;28;20413;-63
2023/11/22 07:11:31;;;;;;;0.30;0.30;;;6.80;99.10;;;;;;4954780;29;20251;-63
2023/11/22 07:14:00;;;;;;;0.30;0.30;;;6.70;99.30;;;;;;4955968;28;20188;-63
2023/11/22 07:16:27;;;;;;;0.30;0.30;;;6.80;99.40;;;;;;4955990;28;20266;-63
2023/11/22 07:18:52;;;;;;;2.45;1.20;;;6.80;99.40;;;;;;4955971;29;20181;-63
2023/11/22 07:21:19;;;;;;;0.97;0.60;;;6.80;99.30;;;;;;4955994;28;20191;-63
2023/11/22 07:23:45;;;;;;;0.30;0.30;;;6.70;99.20;;;;;;4955494;28;20208;-63
2023/11/22 07:26:11;;;;;;;0.67;0.67;;;6.60;99.70;;;;;;4955843;28;20177;-63
2023/11/22 07:28:36;;;;;;;0.30;0.30;;;6.70;99.90;;;;;;4956423;29;20416;-63
2023/11/22 07:31:05;;;;;;;0.30;0.30;;;6.70;99.80;;;;;;4955821;28;20423;-63
2023/11/22 07:33:32;;;;;;;0.68;0.38;;;6.80;99.90;;;;;;4955521;28;20209;-62
2023/11/22 07:35:58;;;;;;;1.90;0.50;;;6.80;99.50;;;;;;4955646;28;20578;-63
2023/11/22 07:38:24;;;;;;;0.30;0.30;;;6.90;99.40;;;;;;4955931;28;20555;-63
2023/11/22 07:40:51;;;;;;;0.30;0.30;;;6.80;99.20;;;;;;4955783;29;20197;-63
2023/11/22 07:43:18;;;;;;;0.30;0.30;;;6.80;99.00;;;;;;4955302;29;20202;-63
2023/11/22 07:45:44;;;;;;;0.40;0.40;;;6.90;99.00;;;;;;4955577;28;20662;-63
2023/11/22 07:48:13;;;;;;;0.40;0.40;;;7.00;99.10;;;;;;4955674;28;20188;-63
2023/11/22 07:50:39;;;;;;;0.30;0.30;;;7.00;98.60;;;;;;4953816;29;20180;-63
2023/11/22 07:53:05;;;;;;;0.60;0.60;;;7.10;98.90;;;;;;4954418;28;20255;-63
2023/11/22 07:55:31;;;;;;;0.40;0.40;;;7.20;98.80;;;;;;4955367;29;20177;-63
2023/11/22 07:57:56;;;;;;;0.40;0.40;;;7.00;97.70;;;;;;4955676;29;20194;-63
2023/11/22 08:00:23;;;;;;;0.30;0.30;;;7.10;97.80;;;;;;4955383;28;20468;-63
2023/11/22 08:02:49;;;;;;;0.30;0.30;;;7.20;97.70;;;;;;4954860;28;20201;-63
2023/11/22 08:05:16;;;;;;;0.30;0.30;;;7.30;97.00;;;;;;4955097;28;20667;-63
2023/11/22 08:07:44;;;;;;;0.40;0.40;;;7.30;96.90;;;;;;4955104;29;20180;-63
2023/11/22 08:10:18;;;;;;;0.40;0.40;;;7.40;96.60;;;;;;4955042;28;20180;-63
2023/11/22 08:12:45;;;;;;;0.30;0.30;;;7.20;96.50;;;;;;4954692;28;20753;-62
2023/11/22 08:15:14;;;;;;;0.30;0.30;;;7.10;97.00;;;;;;4955112;28;20188;-63
2023/11/22 08:17:40;;;;;;;0.38;0.38;;;6.90;97.00;;;;;;4954897;28;20515;-63
2023/11/22 08:20:06;;;;;;;0.30;0.30;;;6.40;97.10;;;;;;4954914;29;20203;-63
2023/11/22 08:22:35;;;;;;;0.43;0.43;;;6.30;97.70;;;;;;4954563;29;20200;-63
2023/11/22 08:25:03;;;;;;;0.40;0.40;;;6.20;97.90;;;;;;4954815;28;20262;-63
2023/11/22 08:27:31;;;;;;;0.43;0.43;;;6.30;97.70;;;;;;4954617;29;20658;-63
2023/11/22 08:29:58;;;;;;;0.40;0.40;;;6.30;97.10;;;;;;4954613;29;20714;-63
2023/11/22 08:32:27;;;;;;;0.60;0.60;;;6.40;97.40;;;;;;4954156;29;20281;-63
2023/11/22 08:34:53;;;;;;;0.40;0.40;;;6.50;97.30;;;;;;4954831;28;20266;-62
2023/11/22 08:37:18;;;;;;;1.37;0.40;;;6.50;97.00;;;;;;4954706;28;20264;-63
2023/11/22 08:39:44;;;;;;;0.53;0.53;;;6.40;97.10;;;;;;4954511;29;20662;-63
2023/11/22 08:42:10;;;;;;;0.40;0.40;;;6.50;96.90;;;;;;4953062;28;20283;-63
2023/11/22 08:44:36;;;;;;;0.40;0.40;;;6.60;96.90;;;;;;4954028;29;20425;-63
2023/11/22 08:47:05;;;;;;;1.25;0.40;;;6.80;96.70;;;;;;4954186;28;20180;-63
2023/11/22 08:49:30;;;;;;;0.30;0.30;;;6.90;96.20;;;;;;4954928;29;20239;-63
2023/11/22 08:51:59;;;;;;;0.40;0.40;;;7.10;95.80;;;;;;4954414;29;20195;-62
2023/11/22 08:54:28;;;;;;;0.45;0.45;;;7.10;95.50;;;;;;4954061;29;20181;-63
2023/11/22 08:56:56;;;;;;;0.40;0.40;;;7.20;95.40;;;;;;4954171;28;20177;-63
2023/11/22 08:59:24;;;;;;;0.40;0.40;;;7.40;95.30;;;;;;4953906;29;20212;-63
2023/11/22 09:01:49;;;;;;;0.40;0.40;;;7.40;94.80;;;;;;4954060;28;20272;-63
2023/11/22 09:04:15;;;;;;;0.47;0.47;;;7.30;95.80;;;;;;4953836;29;20726;-63
2023/11/22 09:06:42;;;;;;;0.40;0.40;;;7.40;96.00;;;;;;4954156;28;20196;-63
2023/11/22 09:09:08;;;;;;;0.45;0.40;;;7.60;95.50;;;;;;4954223;28;20640;-63
2023/11/22 09:11:35;;;;;;;0.40;0.40;;;7.80;95.00;;;;;;4954006;28;20173;-62
2023/11/22 09:14:04;;;;;;;0.73;0.50;;;8.10;94.80;;;;;;4953909;28;20192;-63
2023/11/22 09:16:39;;;;;;;0.40;0.40;;;8.40;93.70;;;;;;4954369;28;20228;-63
2023/11/22 09:19:08;;;;;;;0.73;0.73;;;9.30;93.60;;;;;;4954032;29;20184;-63
2023/11/22 09:21:35;;;;;;;0.40;0.40;;;10.40;90.80;;;;;;4953547;28;20912;-63
2023/11/22 09:24:01;;;;;;;0.67;0.67;;;11.60;89.90;;;;;;4953495;28;20409;-63
2023/11/22 09:26:27;;;;;;;0.30;0.30;;;12.30;84.00;;;;;;4953655;28;20420;-63
2023/11/22 09:28:53;;;;;;;0.30;0.30;;;12.80;79.50;;;;;;4952527;29;20419;-63
2023/11/22 09:31:20;;;;;;;0.60;0.50;;;13.00;77.70;;;;;;4953878;28;20214;-63
2023/11/22 09:33:46;;;;;;;0.30;0.30;;;12.30;76.20;;;;;;4953475;29;20433;-63
2023/11/22 09:36:13;;;;;;;0.40;0.40;;;11.50;77.70;;;;;;4953594;29;20416;-63
2023/11/22 09:38:39;;;;;;;0.97;0.63;;;10.50;79.70;;;;;;4953659;29;20839;-63
2023/11/22 09:41:05;;;;;;;0.60;0.60;;;9.90;83.90;;;;;;4945503;28;20561;-63
2023/11/22 09:43:31;;;;;;;0.30;0.30;;;9.50;86.00;;;;;;4939989;29;20477;-63
2023/11/22 09:45:57;;;;;;;0.40;0.40;;;9.20;86.90;;;;;;4960507;28;20267;-63
2023/11/22 09:48:24;;;;;;;0.40;0.40;;;9.00;88.50;;;;;;4951977;29;20943;-63
2023/11/22 09:51:08;;;;;;;0.40;0.40;;;9.00;89.30;;;;;;4953482;28;20621;-63
2023/11/22 09:53:50;;;;;;;0.40;0.40;;;9.00;90.10;;;;;;4932047;29;20302;-63
2023/11/22 09:56:18;;;;;;;0.40;0.40;;;9.10;90.30;;;;;;4933810;29;20178;-63
2023/11/22 09:58:45;;;;;;;0.30;0.30;;;9.00;89.90;;;;;;4934718;29;20641;-62
2023/11/22 10:01:14;;;;;;;0.30;0.30;;;9.00;90.50;;;;;;4934829;29;20726;-62
2023/11/22 10:03:40;;;;;;;0.40;0.40;;;9.00;90.10;;;;;;4934430;29;20210;-62
2023/11/22 10:06:06;;;;;;;0.30;0.30;;;8.70;90.10;;;;;;4934774;29;20174;-62
2023/11/22 10:08:33;;;;;;;0.65;0.65;;;8.70;90.80;;;;;;4916934;29;20209;-60
2023/11/22 10:10:59;;;;;;;0.35;0.35;;;8.70;90.60;;;;;;4947421;28;20208;-63
2023/11/22 10:13:26;;;;;;;0.80;0.60;;;8.50;90.20;;;;;;4952420;29;20576;-63
2023/11/22 10:15:52;;;;;;;0.30;0.30;;;8.30;90.40;;;;;;4942323;28;20176;-63
2023/11/22 10:18:19;;;;;;;0.40;0.40;;;8.20;91.60;;;;;;4972503;28;20181;-63
2023/11/22 10:20:49;;;;;;;0.52;0.52;;;8.20;92.10;;;;;;4956157;28;20569;-63
2023/11/22 10:23:19;;;;;;;0.73;0.63;;;8.30;92.10;;;;;;4944209;29;20700;-63
2023/11/22 10:25:52;;;;;;;0.43;0.43;;;8.30;91.80;;;;;;4952872;29;20233;-63
2023/11/22 10:28:26;;;;;;;0.40;0.40;;;8.30;92.00;;;;;;4953132;28;20178;-63
2023/11/22 10:30:51;;;;;;;0.52;0.52;;;8.30;92.20;;;;;;4953164;28;20182;-63
2023/11/22 10:33:19;;;;;;;0.60;0.40;;;8.30;91.80;;;;;;4950441;28;20260;-63
2023/11/22 10:35:49;;;;;;;0.40;0.40;;;8.30;91.60;;;;;;4951914;29;20174;-63
2023/11/22 10:38:18;;;;;;;0.55;0.50;;;8.20;91.70;;;;;;4952704;28;20194;-63
2023/11/22 10:40:48;;;;;;;0.60;0.60;;;8.10;91.60;;;;;;4953077;29;20256;-63
2023/11/22 10:43:14;;;;;;;1.52;1.42;;;8.10;91.80;;;;;;4954998;29;20201;-63
2023/11/22 10:45:46;;;;;;;1.52;0.80;;;8.00;92.00;;;;;;4955986;29;20532;-63
2023/11/22 10:48:15;;;;;;;0.38;0.38;;;8.00;92.60;;;;;;4956649;29;20209;-63
2023/11/22 10:50:42;;;;;;;0.40;0.40;;;8.00;92.80;;;;;;4956838;29;20738;-63
2023/11/22 10:53:13;;;;;;;0.30;0.30;;;8.00;92.70;;;;;;4956062;29;20675;-63
2023/11/22 10:55:44;;;;;;;0.30;0.30;;;8.10;92.90;;;;;;4956376;29;20188;-63
2023/11/22 10:58:13;;;;;;;0.40;0.40;;;8.10;93.10;;;;;;4956101;29;20551;-64
2023/11/22 11:00:44;;;;;;;0.40;0.40;;;8.10;92.80;;;;;;4928348;29;20631;-63
2023/11/22 11:03:29;;;;;;;0.50;0.40;;;8.00;92.60;;;;;;4956155;28;20192;-63
2023/11/22 11:05:58;;;;;;;1.25;0.65;;;7.90;92.80;;;;;;4956828;28;20682;-63
2023/11/22 11:08:28;;;;;;;0.30;0.30;;;8.00;92.90;;;;;;4956263;29;20623;-63
2023/11/22 11:10:58;;;;;;;0.60;0.43;;;7.90;92.40;;;;;;4956223;29;20178;-63
2023/11/22 11:13:24;;;;;;;0.50;0.50;;;7.70;92.80;;;;;;4954529;29;20221;-63
2023/11/22 11:15:52;;;;;;;0.45;0.45;;;7.70;93.10;;;;;;4956080;28;20543;-64
2023/11/22 11:18:18;;;;;;;0.85;0.50;;;7.70;93.70;;;;;;4956118;29;20198;-63
2023/11/22 11:20:54;;;;;;;0.50;0.50;;;7.70;93.80;;;;;;4955923;28;20197;-63
2023/11/22 11:23:46;;;;;;;0.40;0.40;;;7.80;93.90;;;;;;4955595;28;20202;-63
2023/11/22 11:26:18;;;;;;;0.52;0.52;;;7.80;94.20;;;;;;4955937;28;20204;-63
2023/11/22 11:28:48;;;;;;;0.77;0.73;;;7.80;94.30;;;;;;4956099;29;20188;-63
2023/11/22 11:31:14;;;;;;;0.40;0.40;;;7.60;95.10;;;;;;4955797;28;20232;-63
2023/11/22 11:33:53;;;;;;;0.95;0.60;;;7.40;95.70;;;;;;4955257;28;20619;-63
2023/11/22 11:36:27;;;;;;;0.40;0.40;;;7.30;96.40;;;;;;4955712;29;20671;-63
2023/11/22 11:38:55;;;;;;;0.63;0.63;;;7.30;96.90;;;;;;4955633;28;20185;-63
2023/11/22 11:41:26;;;;;;;0.80;0.80;;;7.20;97.10;;;;;;4955514;29;20214;-63
2023/11/22 11:43:52;;;;;;;0.43;0.43;;;7.10;97.30;;;;;;4955269;28;20186;-63
2023/11/22 11:46:19;;;;;;;2.93;1.83;;;6.90;97.60;;;;;;4955220;28;20185;-63
2023/11/22 11:48:55;;;;;;;0.70;0.70;;;6.90;97.90;;;;;;4955558;28;20201;-63
2023/11/22 11:51:25;;;;;;;0.50;0.50;;;6.90;98.20;;;;;;4955678;28;20361;-63
2023/11/22 11:53:52;;;;;;;1.10;1.08;;;6.80;98.10;;;;;;4956047;28;20196;-63
2023/11/22 11:56:18;;;;;;;0.50;0.50;;;6.90;98.20;;;;;;4954120;29;20178;-63
2023/11/22 11:58:45;;;;;;;0.85;0.85;;;7.00;98.10;;;;;;4955248;29;20720;-63
2023/11/22 12:01:20;;;;;;;1.10;1.10;;;7.10;97.90;;;;;;4953987;29;20229;-63
2023/11/22 12:03:46;;;;;;;1.73;1.63;;;7.00;97.90;;;;;;4954940;28;20196;-63
2023/11/22 12:06:19;;;;;;;1.08;1.08;;;6.90;98.00;;;;;;4955118;29;20654;-63
2023/11/22 12:08:45;;;;;;;1.02;1.02;;;6.90;98.60;;;;;;4954973;29;20178;-63
2023/11/22 12:11:11;;;;;;;0.50;0.50;;;6.90;98.80;;;;;;4954972;28;20189;-63
2023/11/22 12:13:38;;;;;;;0.97;0.83;;;7.00;98.80;;;;;;4954573;28;20225;-63
2023/11/22 12:16:05;;;;;;;1.40;1.30;;;6.90;98.30;;;;;;4955128;28;20409;-63
2023/11/22 12:18:45;;;;;;;0.70;0.70;;;6.80;98.50;;;;;;4954953;29;20188;-63
2023/11/22 12:21:13;;;;;;;0.88;0.88;;;6.70;98.50;;;;;;4953492;29;20248;-63
2023/11/22 12:23:40;;;;;;;1.48;1.27;;;6.80;98.60;;;;;;4954393;28;20209;-63
2023/11/22 12:26:14;;;;;;;0.73;0.73;;;6.70;98.50;;;;;;4953599;29;20202;-63
2023/11/22 12:28:41;;;;;;;0.68;0.68;;;6.60;98.60;;;;;;4954781;29;20176;-63
2023/11/22 12:31:11;;;;;;;1.13;1.02;;;6.50;98.70;;;;;;4954783;28;20668;-63
2023/11/22 12:33:39;;;;;;;0.75;0.75;;;6.50;98.90;;;;;;4954447;28;20272;-63
2023/11/22 12:36:06;;;;;;;1.67;1.58;;;6.60;98.90;;;;;;4954587;28;20182;-63
2023/11/22 12:38:34;;;;;;;0.85;0.85;;;6.60;99.00;;;;;;4954778;29;20184;-63
2023/11/22 12:41:01;;;;;;;0.70;0.70;;;6.60;98.80;;;;;;4954466;28;20298;-63
2023/11/22 12:43:27;;;;;;;2.58;2.08;;;6.60;98.50;;;;;;4954343;28;20286;-63
2023/11/22 12:46:03;;;;;;;0.60;0.60;;;6.40;98.40;;;;;;4954525;29;20672;-63
2023/11/22 12:48:32;;;;;;;0.63;0.63;;;6.30;98.80;;;;;;4954881;29;20674;-63
2023/11/22 12:50:59;;;;;;;0.50;0.50;;;6.10;98.80;;;;;;4954417;28;20205;-63
2023/11/22 12:53:27;;;;;;;0.73;0.70;;;6.10;99.10;;;;;;4953947;29;20200;-63